• Join FlightAware (Why Join?)
  • Login
  • US Flag 
01:35AM EDT


 

Airport Tracker/Info


-or-


 

Live Flight TrackerFlight Track Log ✈ AVN10 ✈ 05-Apr-2014 ✈ NVVV / VLI - YSSY / SYD

Flight Track Log - Related Links

Times and Time Zones

All times are in EDT time to prevent confusion due to time zone crossing. See the AVN10 flight status page for this flight to view local times or setup timezone preferences in your user account.

Time Position Orientation Groundspeed Altitude Reporting Facility
EDT Latitude Longitude Course Direction KTS MPH feet Rate Location/Type
12:17AM -18.2505 167.8316 220° Southwest  Level Estimated
12:18AM -18.3193 167.7704 220° Southwest  Level Estimated
12:19AM -18.3880 167.7091 220° Southwest  Level Estimated
12:20AM -18.4568 167.6478 220° Southwest  Level Estimated
12:21AM -18.5255 167.5864 220° Southwest  Level Estimated
12:22AM -18.5943 167.5249 220° Southwest  Level Estimated
12:23AM -18.6630 167.4635 220° Southwest  Level Estimated
12:24AM -18.7317 167.4019 220° Southwest  Level Estimated
12:25AM -18.8003 167.3403 220° Southwest  Level Estimated
12:26AM -18.8690 167.2787 220° Southwest  Level Estimated
12:27AM -18.9376 167.2170 220° Southwest  Level Estimated
12:28AM -19.0062 167.1553 220° Southwest  Level Estimated
12:29AM -19.0748 167.0935 220° Southwest  Level Estimated
12:30AM -19.1433 167.0317 220° Southwest  Level Estimated
12:31AM -19.2119 166.9698 220° Southwest  Level Estimated
12:32AM -19.2804 166.9078 220° Southwest  Level Estimated
12:33AM -19.3489 166.8459 220° Southwest  Level Estimated
12:34AM -19.4174 166.7838 221° Southwest  Level Estimated
12:35AM -19.4858 166.7217 221° Southwest  Level Estimated
12:36AM -19.5543 166.6596 221° Southwest  Level Estimated
12:37AM -19.6227 166.5974 221° Southwest  Level Estimated
12:38AM -19.6911 166.5351 221° Southwest  Level Estimated
12:39AM -19.7595 166.4728 221° Southwest  Level Estimated
12:40AM -19.8278 166.4104 221° Southwest  Level Estimated
12:41AM -19.8961 166.3480 221° Southwest  Level Estimated
12:42AM -19.9645 166.2856 221° Southwest  Level Estimated
12:43AM -20.0327 166.2230 221° Southwest  Level Estimated
12:44AM -20.1010 166.1604 221° Southwest  Level Estimated
12:45AM -20.1692 166.0978 221° Southwest  Level Estimated
12:46AM -20.2375 166.0351 221° Southwest  Level Estimated
12:47AM -20.3057 165.9724 221° Southwest  Level Estimated
12:48AM -20.3738 165.9096 221° Southwest  Level Estimated
12:49AM -20.4420 165.8468 221° Southwest  Level Estimated
12:50AM -20.5101 165.7838 221° Southwest  Level Estimated
12:51AM -20.5782 165.7209 221° Southwest  Level Estimated
12:52AM -20.6463 165.6579 221° Southwest  Level Estimated
12:53AM -20.7144 165.5948 221° Southwest  Level Estimated
12:54AM -20.7824 165.5316 221° Southwest  Level Estimated
12:55AM -20.8504 165.4684 221° Southwest  Level Estimated
12:56AM -20.9184 165.4052 221° Southwest  Level Estimated
12:57AM -20.9864 165.3419 221° Southwest  Level Estimated
12:58AM -21.0543 165.2785 221° Southwest  Level Estimated
12:59AM -21.1223 165.2151 221° Southwest  Level Estimated
01:00AM -21.1902 165.1516 221° Southwest  Level Estimated
01:01AM -21.2580 165.0881 221° Southwest  Level Estimated
01:01AM -21.5094 162.8273 235° Southwest 36,000  Level Aus ATC (Calculated)
01:01AM -21.5094 162.8273 235° Southwest 36,000  Level Aus ATC (Calculated)
01:03AM -21.6037 162.6846 235° Southwest  Level FlightAware Approximate
01:04AM -21.6533 162.6095 235° Southwest  Level FlightAware Approximate
01:04AM -21.7116 162.5209 235° Southwest 36,000  Level Aus ATC (Calculated)
01:06AM -21.8057 162.3778 235° Southwest  Level FlightAware Approximate
01:06AM -21.8640 162.2889 235° Southwest 36,000  Level Aus ATC (Calculated)
01:07AM -21.9134 162.2134 235° Southwest  Level FlightAware Approximate
01:07AM -21.9761 162.1175 235° Southwest 36,000  Level Aus ATC (Calculated)
01:08AM -21.9625 162.1383 235° Southwest  Level FlightAware Approximate
01:09AM -22.0546 161.9971 235° Southwest  Level FlightAware Approximate
01:10AM -22.1036 161.9218 235° Southwest  Level FlightAware Approximate
01:11AM -22.1526 161.8465 235° Southwest  Level FlightAware Approximate
01:12AM -22.2016 161.7711 235° Southwest  Level FlightAware Approximate
01:13AM -22.2505 161.6957 235° Southwest  Level FlightAware Approximate
01:14AM -22.2994 161.6202 235° Southwest  Level FlightAware Approximate
01:15AM -22.3483 161.5446 235° Southwest  Level FlightAware Approximate
01:16AM -22.3971 161.4690 235° Southwest  Level FlightAware Approximate
01:17AM -22.4459 161.3934 235° Southwest  Level FlightAware Approximate
01:18AM -22.4946 161.3176 235° Southwest  Level FlightAware Approximate
01:19AM -22.5433 161.2419 235° Southwest  Level FlightAware Approximate
01:20AM -22.5920 161.1660 235° Southwest  Level FlightAware Approximate
01:21AM -22.6407 161.0902 235° Southwest  Level FlightAware Approximate
01:22AM -22.6893 161.0143 235° Southwest  Level FlightAware Approximate
01:23AM -22.7379 160.9383 235° Southwest  Level FlightAware Approximate
01:24AM -22.7864 160.8622 235° Southwest  Level FlightAware Approximate
01:25AM -22.8349 160.7862 235° Southwest  Level FlightAware Approximate
01:26AM -22.8834 160.7100 235° Southwest  Level FlightAware Approximate
01:27AM -22.9318 160.6338 235° Southwest  Level FlightAware Approximate
01:28AM -22.9802 160.5576 235° Southwest  Level FlightAware Approximate
01:29AM -23.0285 160.4813 235° Southwest  Level FlightAware Approximate
01:30AM -23.0768 160.4049 235° Southwest  Level FlightAware Approximate
01:31AM -23.1251 160.3285 235° Southwest  Level FlightAware Approximate
01:32AM -23.1734 160.2520 236° Southwest  Level FlightAware Approximate
01:33AM -23.2216 160.1755 236° Southwest  Level FlightAware Approximate
01:34AM -23.2698 160.0989 236° Southwest  Level FlightAware Approximate
01:35AM -23.3179 160.0223 236° Southwest  Level FlightAware Approximate
01:36AM -23.3660 159.9456 236° Southwest  Level FlightAware Approximate
01:37AM -23.4140 159.8689 236° Southwest  Level FlightAware Approximate
01:38AM -23.4621 159.7921 236° Southwest  Level FlightAware Approximate
01:39AM -23.5100 159.7152 236° Southwest  Level FlightAware Approximate
01:40AM -23.5580 159.6383 236° Southwest  Level FlightAware Approximate
01:40AM -24.2617 158.5020 236° Southwest 36,000  Level Aus ATC (Calculated)
01:41AM -24.3092 158.4243 236° Southwest  Level FlightAware Approximate
01:42AM -24.3568 158.3466 236° Southwest  Level FlightAware Approximate
01:42AM -24.4253 158.2342 236° Southwest 36,000  Level Aus ATC (Calculated)
01:44AM -24.5141 158.0882 236° Southwest  Level FlightAware Approximate
01:45AM -24.5612 158.0106 236° Southwest  Level FlightAware Approximate
01:46AM -24.6083 157.9330 236° Southwest  Level FlightAware Approximate
01:47AM -24.6553 157.8553 236° Southwest  Level FlightAware Approximate
01:47AM -24.7511 157.6966 236° Southwest 36,000  Level Aus ATC (Calculated)
01:49AM -24.8417 157.5459 236° Southwest  Level FlightAware Approximate
01:50AM -24.8886 157.4679 236° Southwest  Level FlightAware Approximate
01:51AM -24.9354 157.3899 237° Southwest  Level FlightAware Approximate
01:52AM -24.9821 157.3117 237° Southwest  Level FlightAware Approximate
01:53AM -25.0288 157.2336 237° Southwest  Level FlightAware Approximate
01:54AM -25.0755 157.1553 237° Southwest  Level FlightAware Approximate
01:55AM -25.1221 157.0770 237° Southwest  Level FlightAware Approximate
01:56AM -25.1687 156.9987 237° Southwest  Level FlightAware Approximate
01:57AM -25.2152 156.9202 237° Southwest  Level FlightAware Approximate
01:58AM -25.2617 156.8417 237° Southwest  Level FlightAware Approximate
01:58AM -25.5570 156.3402 57° Northeast 36,000  Level Aus ATC (Calculated)
01:59AM -25.3081 156.7632 237° Southwest  Level FlightAware Approximate
02:00AM -25.6116 156.2468 237° Southwest  Level FlightAware Approximate
02:00AM -25.6528 156.1763 57° Northeast 36,000  Level Aus ATC (Calculated)
02:01AM -25.0654 157.1736 237° Southwest 410 472 36,000  Level Aus ATC (RADAR)
02:02AM -25.7381 156.0300 237° Southwest  Level FlightAware Approximate
02:02AM -25.0913 157.1284 238° Southwest 411 473 36,000  Level Aus ATC (RADAR)
02:02AM -25.1290 157.0662 236° Southwest 411 473 36,000  Level Aus ATC (RADAR)
02:03AM -25.1739 156.9834 239° Southwest 412 474 36,000  Level Aus ATC (RADAR)
02:04AM -25.2119 156.9213 236° Southwest 412 474 36,000  Level Aus ATC (RADAR)
02:04AM -25.2493 156.8587 237° Southwest 411 473 36,000  Level Aus ATC (RADAR)
02:05AM -25.2885 156.7975 235° Southwest 411 473 36,000  Level Aus ATC (RADAR)
02:06AM -25.3246 156.7338 238° Southwest 411 473 36,000  Level Aus ATC (RADAR)
02:06AM -25.3253 156.7345 237° Southwest 419 482 36,000  Level FlightAware ADS-B (EKCH / CPH)
02:07AM -25.3935 156.6178 237° Southwest 411 473 36,000  Level Aus ATC (RADAR)
02:07AM -25.4199 156.5732 237° Southwest 411 473 36,000  Level Aus ATC (RADAR)
02:08AM -25.4563 156.5102 237° Southwest 411 473 36,000  Level Aus ATC (RADAR)
02:08AM -25.5043 156.4302 236° Southwest 410 472 36,000 60 Level Aus ATC (RADAR)
02:09AM -25.5412 156.3676 237° Southwest 411 473 36,100 60 Climbing Aus ATC (RADAR)
02:10AM -25.5773 156.3041 238° Southwest 411 473 36,100 -120 Level Aus ATC (RADAR)
02:10AM -25.6023 156.2627 237° Southwest 420 483 36,000  Descending FlightAware ADS-B (EKCH / CPH)
02:11AM -25.6453 156.1868 237° Southwest 412 474 36,100  Climbing Aus ATC (RADAR)
02:11AM -25.6562 156.1705 237° Southwest 420 483 36,000  Descending FlightAware ADS-B (EKCH / CPH)
02:12AM -25.7037 156.0888 237° Southwest 413 475 36,100  Climbing Aus ATC (RADAR)
02:12AM -25.7330 156.0459 229° Southwest 423 487 36,000  Descending FlightAware ADS-B (EKCH / CPH)
02:13AM -25.7768 155.9877 229° Southwest 417 480 36,100  Climbing Aus ATC (RADAR)
02:13AM -25.8192 155.9438 224° Southwest 425 489 36,000 -120 Descending FlightAware ADS-B (EKCH / CPH)
02:14AM -25.8696 155.8901 224° Southwest 426 490 36,000 60 Level FlightAware ADS-B (EKCH / CPH)
02:14AM -25.9122 155.8450 224° Southwest 422 486 36,100  Climbing Aus ATC (RADAR)
02:15AM -25.9525 155.8017 224° Southwest 426 490 36,000 -120 Descending FlightAware ADS-B (EKCH / CPH)
02:15AM -25.9916 155.7600 224° Southwest 425 489 36,000  Level FlightAware ADS-B (EKCH / CPH)
02:16AM -26.0718 155.6823 207° Southwest 432 497 36,000  Level FlightAware ADS-B (EKCH / CPH)
02:16AM -26.1103 155.6681 196° South 440 506 36,000  Level FlightAware ADS-B (EKCH / CPH)
02:17AM -26.1508 155.6549 196° South 441 507 36,000  Level FlightAware ADS-B (EKCH / CPH)
02:17AM -26.2274 155.6301 196° South 440 506 36,000  Level FlightAware ADS-B (EKCH / CPH)
02:18AM -26.2863 155.6109 196° South 440 506 36,000  Level FlightAware ADS-B (EKCH / CPH)
02:18AM -26.3447 155.5919 196° South 439 505 36,000  Level FlightAware ADS-B (EKCH / CPH)
02:19AM -26.4211 155.5670 196° South 438 504 36,000  Level FlightAware ADS-B (EKCH / CPH)
02:19AM -26.4781 155.5483 196° South 438 504 36,000  Level FlightAware ADS-B (EKCH / CPH)
02:20AM -26.5185 155.5313 208° Southwest 428 493 36,000  Level FlightAware ADS-B (EKCH / CPH)
02:20AM -26.5480 155.5079 222° Southwest 421 484 36,000  Level FlightAware ADS-B (EKCH / CPH)
02:21AM -26.5851 155.4632 228° Southwest 419 482 36,000  Level FlightAware ADS-B (EKCH / CPH)
02:21AM -26.6264 155.4122 228° Southwest 418 481 36,000  Level FlightAware ADS-B (EKCH / CPH)
02:22AM -26.6674 155.3618 228° Southwest 419 482 36,000  Level FlightAware ADS-B (EKCH / CPH)
02:22AM -26.7062 155.3139 228° Southwest 419 482 36,000  Level FlightAware ADS-B (EKCH / CPH)
02:23AM -26.7458 155.2650 228° Southwest 419 482 36,000  Level FlightAware ADS-B (EKCH / CPH)
02:23AM -26.7837 155.2181 228° Southwest 419 482 36,000  Level FlightAware ADS-B (EKCH / CPH)
02:24AM -26.8236 155.1687 228° Southwest 419 482 36,000  Level FlightAware ADS-B (EKCH / CPH)
02:24AM -26.8587 155.1251 228° Southwest 418 481 36,000  Level FlightAware ADS-B (EKCH / CPH)
02:24AM -26.8764 155.1031 229° Southwest 412 474 36,000  Level FlightAware ADS-B (YTWB)
02:25AM -26.9245 155.0434 228° Southwest 417 480 36,000  Level FlightAware ADS-B (EKCH / CPH)
02:25AM -26.9652 154.9928 228° Southwest 418 481 36,000  Level FlightAware ADS-B (EKCH / CPH)
02:26AM -27.0166 154.9292 228° Southwest 417 480 36,000  Level FlightAware ADS-B (EKCH / CPH)
02:27AM -27.0556 154.8807 228° Southwest 416 479 36,000  Level FlightAware ADS-B (EKCH / CPH)
02:27AM -27.0909 154.8366 228° Southwest 417 480 36,000  Level FlightAware ADS-B (EKCH / CPH)
02:28AM -27.1335 154.7835 228° Southwest 416 479 36,000  Level FlightAware ADS-B (EKCH / CPH)
02:28AM -27.1713 154.7362 228° Southwest 416 479 36,000  Level FlightAware ADS-B (EKCH / CPH)
02:29AM -27.2103 154.6873 228° Southwest 416 479 36,000  Level FlightAware ADS-B (EKCH / CPH)
02:29AM -27.2468 154.6416 228° Southwest 415 478 36,000  Level FlightAware ADS-B (EKCH / CPH)
02:30AM -27.2873 154.5906 228° Southwest 415 478 36,000  Level FlightAware ADS-B (EKCH / CPH)
02:30AM -27.3269 154.5409 228° Southwest 416 479 36,000  Level FlightAware ADS-B (EKCH / CPH)
02:31AM -27.3642 154.4941 228° Southwest 415 478 36,000  Level FlightAware ADS-B (EKCH / CPH)
02:31AM -27.4041 154.4437 229° Southwest 415 478 36,000 60 Level FlightAware ADS-B (EKCH / CPH)
02:32AM -27.4415 154.3967 228° Southwest 416 479 36,100 660 Climbing FlightAware ADS-B (EKCH / CPH)
02:32AM -27.4790 154.3500 228° Southwest 414 476 36,700 1,380 Climbing FlightAware ADS-B (EKCH / CPH)
02:33AM -27.5165 154.3028 228° Southwest 409 471 37,500 1,500 Climbing FlightAware ADS-B (EKCH / CPH)
02:33AM -27.5568 154.2521 228° Southwest 404 465 38,200 1,200 Climbing FlightAware ADS-B (EKCH / CPH)
02:34AM -27.5914 154.2081 229° Southwest 404 465 38,700 960 Climbing FlightAware ADS-B (EKCH / CPH)
02:34AM -27.6308 154.1579 229° Southwest 402 463 39,200 1,080 Climbing FlightAware ADS-B (EKCH / CPH)
02:35AM -27.6675 154.1112 229° Southwest 399 459 39,800 780 Climbing FlightAware ADS-B (EKCH / CPH)
02:35AM -27.7036 154.0651 229° Southwest 400 460 40,000 180 Climbing FlightAware ADS-B (EKCH / CPH)
02:36AM -27.7375 154.0219 228° Southwest 401 461 40,000  Level FlightAware ADS-B (EKCH / CPH)
02:36AM -27.7784 153.9702 228° Southwest 402 463 40,000  Level FlightAware ADS-B (EKCH / CPH)
02:37AM -27.8158 153.9227 228° Southwest 402 463 40,000  Level FlightAware ADS-B (EKCH / CPH)
02:37AM -27.8534 153.8749 229° Southwest 402 463 40,000  Level FlightAware ADS-B (EKCH / CPH)
02:38AM -27.8908 153.8271 229° Southwest 402 463 40,000 60 Level FlightAware ADS-B (EKCH / CPH)
02:39AM -27.9644 153.7340 229° Southwest 400 460 40,100  Climbing Aus ATC (RADAR)
02:39AM -27.9745 153.7201 229° Southwest 401 461 40,000 -120 Descending FlightAware ADS-B (EKCH / CPH)
02:40AM -28.0262 153.6539 229° Southwest 400 460 40,000  Level FlightAware ADS-B (EKCH / CPH)
02:40AM -28.0622 153.6076 229° Southwest 398 458 40,000  Level FlightAware ADS-B (EKCH / CPH)
02:41AM -28.0994 153.5597 229° Southwest 397 457 40,000  Level FlightAware ADS-B (EKCH / CPH)
02:41AM -28.1352 153.5138 229° Southwest 395 455 40,000  Level FlightAware ADS-B (EKCH / CPH)
02:42AM -28.1714 153.4689 224° Southwest 398 458 40,000  Level FlightAware ADS-B (EKCH / CPH)
02:42AM -28.1846 153.4556 222° Southwest 392 451 40,000  Level FlightAware ADS-B (YTWB)
02:42AM -28.2261 153.4143 222° Southwest 397 457 40,000  Level FlightAware ADS-B (EKCH / CPH)
02:42AM -28.2436 153.3965 223° Southwest 391 450 40,000  Level FlightAware ADS-B (YTWB)
02:43AM -28.2861 153.3536 223° Southwest 391 450 40,000  Level FlightAware ADS-B (YTWB)
02:44AM -28.3368 153.3024 222° Southwest 397 457 40,000  Level FlightAware ADS-B (EKCH / CPH)
02:44AM -28.3841 153.2547 223° Southwest 390 449 40,000  Level FlightAware ADS-B (YTWB)
02:45AM -28.4333 153.2049 222° Southwest 395 455 40,000  Level FlightAware ADS-B (EKCH / CPH)
02:45AM -28.4747 153.1633 222° Southwest 395 455 40,000  Level FlightAware ADS-B (EKCH / CPH)
02:46AM -28.5172 153.1199 223° Southwest 393 452 40,000  Level FlightAware ADS-B (EKCH / CPH)
02:46AM -28.5574 153.0773 224° Southwest 391 450 40,000  Level FlightAware ADS-B (EKCH / CPH)
02:47AM -28.5959 153.0345 226° Southwest 390 449 40,000  Level FlightAware ADS-B (EKCH / CPH)
02:47AM -28.6333 152.9895 227° Southwest 389 448 40,000  Level FlightAware ADS-B (EKCH / CPH)
02:48AM -28.6697 152.9448 227° Southwest 390 449 40,000  Level FlightAware ADS-B (EKCH / CPH)
02:48AM -28.6839 152.9276 228° Southwest 384 442 40,000  Level FlightAware ADS-B (YTWB)
02:48AM -28.7211 152.8824 228° Southwest 385 443 40,000  Level FlightAware ADS-B (YTWB)
02:49AM -28.7462 152.8520 228° Southwest 384 442 40,000  Level FlightAware ADS-B (YTWB)
02:49AM -28.7591 152.8365 228° Southwest 384 442 40,000  Level FlightAware ADS-B (YTWB)
02:49AM -28.7702 152.8231 228° Southwest 384 442 40,000  Level FlightAware ADS-B (YTWB)
02:50AM -28.8097 152.7821 216° Southwest 399 459 40,000  Level FlightAware ADS-B (EKCH / CPH)
02:50AM -28.8597 152.7519 204° Southwest 408 470 40,000  Level FlightAware ADS-B (EKCH / CPH)
02:51AM -28.9119 152.7252 204° Southwest 406 467 40,000  Level FlightAware ADS-B (YTWB)
02:51AM -28.9641 152.6981 205° Southwest 407 468 40,000  Level FlightAware ADS-B (YTWB)
02:52AM -29.0302 152.6638 205° Southwest 407 468 40,000  Level FlightAware ADS-B (EKCH / CPH)
02:52AM -29.0816 152.6371 205° Southwest 409 471 40,000  Level FlightAware ADS-B (EKCH / CPH)
02:53AM -29.1335 152.6102 205° Southwest 413 475 40,000  Level FlightAware ADS-B (EKCH / CPH)
02:53AM -29.1871 152.5825 204° Southwest 414 476 40,000  Level FlightAware ADS-B (EKCH / CPH)
02:53AM -29.2053 152.5731 205° Southwest 408 470 40,000  Level FlightAware ADS-B (YTWB)
02:54AM -29.2737 152.5376 205° Southwest 415 478 40,000  Level FlightAware ADS-B (EKCH / CPH)
02:55AM -29.3246 152.5112 205° Southwest 415 478 40,000  Level FlightAware ADS-B (EKCH / CPH)
02:55AM -29.3787 152.4830 205° Southwest 415 478 40,000  Level FlightAware ADS-B (EKCH / CPH)
02:56AM -29.4335 152.4545 205° Southwest 415 478 40,000  Level FlightAware ADS-B (EKCH / CPH)
02:56AM -29.4860 152.4273 205° Southwest 415 478 40,000  Level FlightAware ADS-B (EKCH / CPH)
02:57AM -29.5361 152.4012 205° Southwest 414 476 40,000  Level FlightAware ADS-B (EKCH / CPH)
02:57AM -29.5907 152.3725 205° Southwest 413 475 40,000  Level FlightAware ADS-B (EKCH / CPH)
02:58AM -29.6413 152.3458 205° Southwest 412 474 40,000  Level FlightAware ADS-B (EKCH / CPH)
02:58AM -29.6928 152.3187 205° Southwest 411 473 40,000  Level FlightAware ADS-B (EKCH / CPH)
02:59AM -29.7461 152.2908 205° Southwest 410 472 40,000  Level FlightAware ADS-B (EKCH / CPH)
02:59AM -29.7977 152.2636 205° Southwest 411 473 40,000  Level FlightAware ADS-B (EKCH / CPH)
03:00AM -29.8646 152.2283 205° Southwest 411 473 40,000  Level FlightAware ADS-B (EKCH / CPH)
03:00AM -29.9365 152.1904 205° Southwest 413 475 40,000  Level FlightAware ADS-B (EKCH / CPH)
03:01AM -29.9911 152.1616 205° Southwest 413 475 40,000  Level FlightAware ADS-B (EKCH / CPH)
03:01AM -30.0420 152.1349 205° Southwest 413 475 40,000  Level FlightAware ADS-B (EKCH / CPH)
03:02AM -30.0856 152.1118 205° Southwest 411 473 40,000  Level FlightAware ADS-B (EKCH / CPH)
03:02AM -30.1470 152.0792 205° Southwest 410 472 40,000  Level FlightAware ADS-B (EKCH / CPH)
03:03AM -30.2290 152.0355 205° Southwest 408 470 40,000  Level FlightAware ADS-B (EKCH / CPH)
03:04AM -30.2824 152.0070 205° Southwest 409 471 40,000  Level FlightAware ADS-B (EKCH / CPH)
03:04AM -30.3317 151.9808 205° Southwest 409 471 40,000 60 Level FlightAware ADS-B (EKCH / CPH)
03:05AM -30.4333 151.9255 205° Southwest 411 473 40,100 60 Climbing Aus ATC (RADAR)
03:06AM -30.4850 151.8982 204° Southwest 410 472 40,100  Level Aus ATC (RADAR)
03:06AM -30.5540 151.8616 205° Southwest 411 473 40,100  Level Aus ATC (RADAR)
03:07AM -30.6491 151.8109 205° Southwest 411 473 40,100  Level Aus ATC (RADAR)
03:08AM -30.6920 151.7877 205° Southwest 411 473 40,100  Level Aus ATC (RADAR)
03:08AM -30.7355 151.7646 205° Southwest 413 475 40,100 -120 Level Aus ATC (RADAR)
03:09AM -30.7893 151.7360 204° Southwest 412 474 40,000 -120 Descending FlightAware ADS-B (YPLB)
03:09AM -30.8594 151.6982 205° Southwest 413 475 40,000  Level FlightAware ADS-B (YPLB)
03:10AM -30.9280 151.6612 205° Southwest 413 475 40,000 60 Level FlightAware ADS-B (YPLB)
03:11AM -30.9955 151.6246 205° Southwest 414 476 40,100  Climbing Aus ATC (RADAR)
03:11AM -30.9973 151.6236 205° Southwest 413 475 40,000  Descending FlightAware ADS-B (YPLB)
03:11AM -31.0475 151.5966 205° Southwest 413 475 40,100  Climbing Aus ATC (RADAR)
03:11AM -31.0495 151.5954 205° Southwest 413 475 40,000 -180 Descending FlightAware ADS-B (YPLB)
03:12AM -31.1072 151.5642 205° Southwest 413 475 40,000  Level FlightAware ADS-B
03:12AM -31.1178 151.5585 204° Southwest 412 474 40,000  Level FlightAware ADS-B (YPLB)
03:12AM -31.1351 151.5491 204° Southwest 413 475 40,000  Level FlightAware ADS-B (YPLB)
03:13AM -31.2068 151.5101 205° Southwest 414 476 40,000  Level FlightAware ADS-B (YPLB)
03:13AM -31.2593 151.4816 205° Southwest 413 475 40,000  Level FlightAware ADS-B (YPLB)
03:14AM -31.2907 151.4644 205° Southwest 414 476 40,000  Level FlightAware ADS-B
03:15AM -31.3959 151.4081 205° Southwest 414 476 40,000  Level FlightAware ADS-B
03:15AM -31.4391 151.3889 201° Southwest 424 488 40,000  Level FlightAware ADS-B
03:16AM -31.5455 151.3415 201° Southwest 424 488 40,000  Level FlightAware ADS-B (YPLB)
03:16AM -31.5948 151.3194 201° Southwest 424 488 40,000  Level FlightAware ADS-B
03:17AM -31.6572 151.2914 201° Southwest 423 487 40,000  Level FlightAware ADS-B
03:17AM -31.7277 151.2596 201° Southwest 423 487 40,000  Level FlightAware ADS-B (YPLB)
03:18AM -31.7857 151.2358 192° South 434 499 40,000  Level FlightAware ADS-B (YPLB)
03:18AM -31.8456 151.2251 186° South 443 510 40,000  Level FlightAware ADS-B (YPLB)
03:19AM -31.9240 151.2146 187° South 444 511 40,000  Level FlightAware ADS-B
03:20AM -31.9775 151.2074 187° South 445 512 40,000  Level FlightAware ADS-B
03:20AM -32.0462 151.1982 186° South 446 513 40,000 -900 Level FlightAware ADS-B
03:21AM -32.0983 151.1914 186° South 442 509 39,100 -2,040 Descending FlightAware ADS-B
03:21AM -32.1756 151.1817 186° South 437 503 38,000 -2,400 Descending FlightAware ADS-B
03:22AM -32.1871 151.1802 186° South 439 505 36,700 -2,580 Descending FlightAware ADS-B
03:22AM -32.2530 151.1717 186° South 441 507 35,400 -3,180 Descending FlightAware ADS-B
03:23AM -32.3788 151.1554 187° South 461 531 33,000 -3,180 Descending FlightAware ADS-B
03:23AM -32.4445 151.1471 186° South 465 535 31,700 -2,700 Descending FlightAware ADS-B
03:24AM -32.4802 151.1427 185° South 463 533 31,000 -2,460 Descending FlightAware ADS-B (YPLB)
03:24AM -32.5469 151.1345 186° South 456 525 29,700 -2,400 Descending FlightAware ADS-B
03:24AM -32.5652 151.1322 185° South 454 522 29,400 -2,580 Descending FlightAware ADS-B (YPLB)
03:25AM -32.6303 151.1238 186° South 448 516 28,000 -2,400 Descending FlightAware ADS-B
03:25AM -32.6920 151.1155 187° South 441 507 26,800 -2,520 Descending FlightAware ADS-B
03:25AM -32.7124 151.1128 186° South 438 504 26,500 -2,640 Descending FlightAware ADS-B (YPLB)
03:26AM -32.7313 151.1102 186° South 436 502 26,100 -2,340 Descending FlightAware ADS-B (YPLB)
03:26AM -32.7471 151.1080 186° South 434 499 25,800 -2,220 Descending FlightAware ADS-B (YPLB)
03:26AM -32.8111 151.0996 186° South 430 495 24,500 -2,280 Descending FlightAware ADS-B
03:27AM -32.8712 151.0917 186° South 423 487 23,300 -2,400 Descending FlightAware ADS-B
03:27AM -32.9255 151.0846 186° South 416 479 22,100 -2,400 Descending FlightAware ADS-B
03:28AM -32.9850 151.0768 186° South 411 473 20,900 -2,700 Descending FlightAware ADS-B
03:28AM -33.0042 151.0741 186° South 405 466 20,500 -2,820 Descending FlightAware ADS-B (YPLB)
03:28AM -33.0216 151.0717 186° South 399 459 20,200 -1,920 Descending FlightAware ADS-B (YPLB)
03:29AM -33.0651 151.0659 186° South 386 444 19,100 -2,040 Descending FlightAware ADS-B
03:29AM -33.1093 151.0605 185° South 382 440 18,500 -2,220 Descending FlightAware ADS-B (YPLB)
03:29AM -33.1299 151.0612 173° South 385 443 18,000 -2,280 Descending FlightAware ADS-B
03:29AM -33.1627 151.0681 168° South 385 443 17,400 -2,280 Descending FlightAware ADS-B (YPLB)
03:30AM -33.1786 151.0730 164° South 386 444 17,100 -2,040 Descending FlightAware ADS-B (YPLB)
03:30AM -33.1964 151.0803 159° South 387 445 16,700 -1,920 Descending FlightAware ADS-B (YPLB)
03:30AM -33.2141 151.0879 159° South 384 442 16,400 -2,040 Descending FlightAware ADS-B (YPLB)
03:30AM -33.2487 151.1029 159° South 379 436 15,700 -1,920 Descending FlightAware ADS-B (YPLB)
03:31AM -33.2972 151.1235 160° South 369 425 14,700 -2,220 Descending FlightAware ADS-B
03:31AM -33.3455 151.1437 161° South 374 430 13,300 -3,000 Descending FlightAware ADS-B
03:31AM -33.3626 151.1507 160° South 373 429 12,900 -2,580 Descending FlightAware ADS-B (YPLB)
03:32AM -33.4122 151.1719 160° South 370 426 11,600 -2,340 Descending FlightAware ADS-B
03:32AM -33.4242 151.1772 159° South 367 422 11,400 -2,100 Descending FlightAware ADS-B (YPLB)
03:33AM -33.4703 151.1970 160° South 358 412 10,400 -2,160 Descending FlightAware ADS-B (YRAY)
03:33AM -33.4772 151.2000 160° South 350 403 9,800 -3,120 Descending FlightAware ADS-B
03:33AM -33.5204 151.2182 160° South 351 404 8,600 -3,780 Descending FlightAware ADS-B
03:33AM -33.5338 151.2239 160° South 347 399 8,300 -3,180 Descending FlightAware ADS-B (YPLB)
03:34AM -33.5522 151.2316 161° South 346 398 7,600 -2,700 Descending FlightAware ADS-B
03:34AM -33.5825 151.2445 160° South 340 391 6,700 -2,220 Descending FlightAware ADS-B
03:34AM -33.6105 151.2566 160° South 326 375 6,100 -1,200 Descending FlightAware ADS-B
03:35AM -33.6376 151.2683 160° South 300 345 5,900 -540 Descending FlightAware ADS-B
03:35AM -33.6481 151.2728 159° South 288 331 5,900  Level FlightAware ADS-B (YPLB)
03:35AM -33.6613 151.2786 160° South 279 321 5,900  Level FlightAware ADS-B
03:35AM -33.6724 151.2835 159° South 275 316 5,900 -900 Level FlightAware ADS-B (YPLB)
03:35AM -33.6836 151.2883 160° South 273 314 5,600 -1,380 Descending FlightAware ADS-B
03:36AM -33.7101 151.2997 160° South 271 312 5,100 -1,200 Descending FlightAware ADS-B
03:36AM -33.7326 151.3095 160° South 263 303 4,800 -1,200 Descending FlightAware ADS-B
03:36AM -33.7435 151.3141 160° South 260 299 4,600 -1,200 Descending FlightAware ADS-B (YPLB)
03:36AM -33.7564 151.3196 161° South 261 300 4,400 -1,200 Descending FlightAware ADS-B
03:36AM -33.7669 151.3240 160° South 260 299 4,200 -1,620 Descending FlightAware ADS-B (YPLB)
03:37AM -33.7874 151.3326 161° South 259 298 3,700 -1,680 Descending FlightAware ADS-B (YRAY)
03:37AM -33.7996 151.3378 160° South 254 292 3,400 -1,380 Descending FlightAware ADS-B (YPLB)
03:37AM -33.8093 151.3419 160° South 247 284 3,300 -1,020 Descending FlightAware ADS-B (YPLB)
03:37AM -33.8235 151.3479 160° South 238 274 3,000 -1,140 Descending FlightAware ADS-B
03:37AM -33.8319 151.3515 159° South 225 259 2,900 -360 Descending FlightAware ADS-B (YPLB)
03:37AM -33.8420 151.3561 159° South 209 241 2,900  Level FlightAware ADS-B (YPLB)
03:38AM -33.8492 151.3592 159° South 203 234 2,900  Level FlightAware ADS-B (YPLB)
03:38AM -33.8484 151.3589 160° South 198 228 2,900 -300 Level FlightAware ADS-B
03:38AM -33.8668 151.3671 159° South 195 224 2,800 -600 Descending FlightAware ADS-B (YPLB)
03:38AM -33.8762 151.3707 164° South 188 216 2,700 -540 Descending FlightAware ADS-B
03:39AM -33.8925 151.3766 163° South 177 204 2,500 -720 Descending FlightAware ADS-B
03:39AM -33.8997 151.3785 173° South 171 197 2,400 -840 Descending FlightAware ADS-B (YPLB)
03:39AM -33.9046 151.3779 192° South 167 192 2,300 -480 Descending FlightAware ADS-B (YRPA)
03:39AM -33.9038 151.3782 203° Southwest 164 189 2,300 -600 Level FlightAware ADS-B
03:39AM -33.9117 151.3728 183° South 168 193 2,200 -600 Descending FlightAware ADS-B (YRAY)
03:39AM -33.9128 151.3711 233° Southwest 163 188 2,200 -420 Level FlightAware ADS-B
03:39AM -33.9154 151.3623 257° West 165 190 2,100 -600 Descending FlightAware ADS-B
03:39AM -33.9153 151.3577 288° West 174 200 2,000 -600 Descending FlightAware ADS-B
03:40AM -33.9109 151.3455 299° West 179 206 1,900 -420 Descending FlightAware ADS-B
03:40AM -33.9094 151.3424 295° West 175 201 1,900  Level FlightAware ADS-B (YPLB)
03:40AM -33.9056 151.3271 270° West 165 190 1,900  Level FlightAware ADS-B
03:40AM -33.9071 151.3195 258° West 156 180 1,900  Level FlightAware ADS-B (YRAY)
03:40AM -33.9092 151.3099 256° West 153 176 1,900 -540 Level FlightAware ADS-B (YPLB)
03:40AM -33.9111 151.3011 255° West 150 173 1,700 -600 Descending FlightAware ADS-B
03:40AM -33.9123 151.2959 257° West 146 168 1,700 -600 Level FlightAware ADS-B (YRAY)
03:41AM -33.9150 151.2850 254° West 142 163 1,500 -660 Descending FlightAware ADS-B
03:41AM -33.9175 151.2744 254° West 139 160 1,400 -600 Descending FlightAware ADS-B (YRAY)
03:41AM -33.9191 151.2676 255° West 133 153 1,200 -780 Descending FlightAware ADS-B
03:41AM -33.9228 151.2519 254° West 129 148 1,000 -840 Descending FlightAware ADS-B (YRAY)
03:42AM -33.9232 151.2502 254° West 130 150 800 -840 Descending FlightAware ADS-B
03:42AM -33.9278 151.2310 254° West 135 155 600 -600 Descending FlightAware ADS-B (YRPA)
03:42AM -33.9283 151.2289 254° West 143 165 400 -780 Descending FlightAware ADS-B
03:43AM -33.9351 151.2002 255° West 144 166 100 -1,140 Descending FlightAware ADS-B (YRAY)
03:43AM -33.9389 151.1843 257° West 147 169 -300 Descending FlightAware ADS-B (YRAY)